sensor_id;sensor_type;location;lat;lon;timestamp;pressure;altitude;pressure_sealevel;temperature;humidity
65175;BME280;51761;42.126;24.752;2023-01-28T00:02:07;98905.84;;;5.09;70.70
65175;BME280;51761;42.126;24.752;2023-01-28T00:04:32;98907.09;;;5.01;70.75
65175;BME280;51761;42.126;24.752;2023-01-28T00:06:58;98902.38;;;4.94;70.64
65175;BME280;51761;42.126;24.752;2023-01-28T00:09:24;98901.94;;;4.99;70.70
65175;BME280;51761;42.126;24.752;2023-01-28T00:11:49;98897.22;;;4.96;70.42
65175;BME280;51761;42.126;24.752;2023-01-28T00:14:16;98910.25;;;4.99;70.55
65175;BME280;51761;42.126;24.752;2023-01-28T00:16:41;98911.88;;;4.93;70.62
65175;BME280;51761;42.126;24.752;2023-01-28T00:19:07;98902.03;;;4.82;70.65
65175;BME280;51761;42.126;24.752;2023-01-28T00:21:33;98914.28;;;4.84;70.97
65175;BME280;51761;42.126;24.752;2023-01-28T00:23:58;98880.75;;;4.68;70.50
65175;BME280;51761;42.126;24.752;2023-01-28T00:26:24;98917.41;;;4.90;70.68
65175;BME280;51761;42.126;24.752;2023-01-28T00:28:50;98889.81;;;4.72;70.97
65175;BME280;51761;42.126;24.752;2023-01-28T00:31:23;98913.88;;;4.86;71.13
65175;BME280;51761;42.126;24.752;2023-01-28T00:33:50;98903.28;;;4.70;71.01
65175;BME280;51761;42.126;24.752;2023-01-28T00:36:17;98914.34;;;4.74;71.08
65175;BME280;51761;42.126;24.752;2023-01-28T00:38:48;98934.38;;;4.95;70.98
65175;BME280;51761;42.126;24.752;2023-01-28T00:41:16;98924.97;;;4.75;71.07
65175;BME280;51761;42.126;24.752;2023-01-28T00:43:42;98914.72;;;4.72;71.24
65175;BME280;51761;42.126;24.752;2023-01-28T00:46:10;98920.63;;;4.74;71.17
65175;BME280;51761;42.126;24.752;2023-01-28T00:48:37;98961.66;;;4.97;70.93
65175;BME280;51761;42.126;24.752;2023-01-28T00:51:05;98925.78;;;4.72;70.94
65175;BME280;51761;42.126;24.752;2023-01-28T00:53:31;98970.34;;;4.95;70.95
65175;BME280;51761;42.126;24.752;2023-01-28T00:55:56;98961.31;;;4.84;71.33
65175;BME280;51761;42.126;24.752;2023-01-28T00:58:22;98934.06;;;4.72;71.27
65175;BME280;51761;42.126;24.752;2023-01-28T01:00:51;98930.88;;;4.77;71.36
65175;BME280;51761;42.126;24.752;2023-01-28T01:03:17;98959.69;;;4.90;71.30
65175;BME280;51761;42.126;24.752;2023-01-28T01:05:44;98962.91;;;4.82;71.56
65175;BME280;51761;42.126;24.752;2023-01-28T01:08:09;98930.50;;;4.75;71.29
65175;BME280;51761;42.126;24.752;2023-01-28T01:10:36;98940.75;;;4.85;71.15
65175;BME280;51761;42.126;24.752;2023-01-28T01:13:03;98966.41;;;4.93;71.32
65175;BME280;51761;42.126;24.752;2023-01-28T01:15:29;98955.78;;;4.84;71.62
65175;BME280;51761;42.126;24.752;2023-01-28T01:17:55;98969.59;;;4.91;71.16
65175;BME280;51761;42.126;24.752;2023-01-28T01:20:24;98959.66;;;5.01;70.68
65175;BME280;51761;42.126;24.752;2023-01-28T01:22:50;98958.09;;;4.96;70.85
65175;BME280;51761;42.126;24.752;2023-01-28T01:25:17;98935.22;;;4.78;70.74
65175;BME280;51761;42.126;24.752;2023-01-28T01:27:43;98941.19;;;4.73;71.19
65175;BME280;51761;42.126;24.752;2023-01-28T01:30:11;98972.38;;;4.84;71.32
65175;BME280;51761;42.126;24.752;2023-01-28T01:32:36;98972.34;;;4.88;70.96
65175;BME280;51761;42.126;24.752;2023-01-28T01:35:03;98951.47;;;4.69;71.25
65175;BME280;51761;42.126;24.752;2023-01-28T01:37:30;98953.44;;;4.76;71.36
65175;BME280;51761;42.126;24.752;2023-01-28T01:39:56;98973.50;;;4.94;71.02
65175;BME280;51761;42.126;24.752;2023-01-28T01:42:23;98975.50;;;4.93;70.94
65175;BME280;51761;42.126;24.752;2023-01-28T01:52:52;98965.31;;;4.69;70.88
65175;BME280;51761;42.126;24.752;2023-01-28T01:55:20;98986.56;;;4.90;70.93
65175;BME280;51761;42.126;24.752;2023-01-28T01:57:50;98990.91;;;4.91;70.46
65175;BME280;51761;42.126;24.752;2023-01-28T02:00:17;98968.47;;;4.75;70.85
65175;BME280;51761;42.126;24.752;2023-01-28T02:02:45;98962.91;;;4.75;70.44
65175;BME280;51761;42.126;24.752;2023-01-28T02:05:14;98994.88;;;4.93;70.18
65175;BME280;51761;42.126;24.752;2023-01-28T02:07:40;98975.91;;;4.81;69.89
65175;BME280;51761;42.126;24.752;2023-01-28T02:10:08;98977.91;;;4.81;69.74
65175;BME280;51761;42.126;24.752;2023-01-28T02:12:46;98994.84;;;5.04;69.51
65175;BME280;51761;42.126;24.752;2023-01-28T02:15:23;99011.06;;;4.95;69.58
65175;BME280;51761;42.126;24.752;2023-01-28T02:17:49;99001.56;;;5.03;69.47
65175;BME280;51761;42.126;24.752;2023-01-28T02:20:20;98997.22;;;5.02;69.60
65175;BME280;51761;42.126;24.752;2023-01-28T02:28:47;99013.03;;;4.94;69.80
65175;BME280;51761;42.126;24.752;2023-01-28T02:31:47;99011.06;;;4.98;69.90
65175;BME280;51761;42.126;24.752;2023-01-28T02:39:41;98994.06;;;4.93;69.23
65175;BME280;51761;42.126;24.752;2023-01-28T02:42:17;98998.84;;;4.85;69.25
65175;BME280;51761;42.126;24.752;2023-01-28T02:44:43;99022.13;;;4.98;69.10
65175;BME280;51761;42.126;24.752;2023-01-28T02:47:13;99028.06;;;4.93;69.16
65175;BME280;51761;42.126;24.752;2023-01-28T02:50:01;99024.88;;;4.95;68.88
65175;BME280;51761;42.126;24.752;2023-01-28T02:57:49;99034.38;;;5.01;68.72
65175;BME280;51761;42.126;24.752;2023-01-28T03:00:27;99033.97;;;5.02;68.27
65175;BME280;51761;42.126;24.752;2023-01-28T03:03:14;99034.75;;;5.03;68.32
65175;BME280;51761;42.126;24.752;2023-01-28T03:05:46;99018.22;;;4.85;68.11
65175;BME280;51761;42.126;24.752;2023-01-28T03:08:31;99014.28;;;4.72;68.30
65175;BME280;51761;42.126;24.752;2023-01-28T03:11:24;99043.47;;;4.94;68.02
65175;BME280;51761;42.126;24.752;2023-01-28T03:14:11;99041.50;;;4.88;68.32
65175;BME280;51761;42.126;24.752;2023-01-28T03:16:58;99034.75;;;4.96;67.67
65175;BME280;51761;42.126;24.752;2023-01-28T03:19:42;99042.28;;;4.95;67.68
65175;BME280;51761;42.126;24.752;2023-01-28T03:22:28;99043.88;;;4.96;67.59
65175;BME280;51761;42.126;24.752;2023-01-28T03:25:15;99022.16;;;4.77;67.85
65175;BME280;51761;42.126;24.752;2023-01-28T03:28:04;99044.69;;;4.86;68.05
65175;BME280;51761;42.126;24.752;2023-01-28T03:31:06;99037.16;;;4.87;68.22
65175;BME280;51761;42.126;24.752;2023-01-28T03:33:52;99039.53;;;4.88;68.02
65175;BME280;51761;42.126;24.752;2023-01-28T03:36:38;99043.09;;;4.89;67.51
65175;BME280;51761;42.126;24.752;2023-01-28T03:39:27;99030.84;;;4.79;67.46
65175;BME280;51761;42.126;24.752;2023-01-28T03:44:23;99047.44;;;4.93;67.08
65175;BME280;51761;42.126;24.752;2023-01-28T03:47:07;99039.53;;;4.88;66.94
65175;BME280;51761;42.126;24.752;2023-01-28T03:49:33;99050.97;;;4.97;67.39
65175;BME280;51761;42.126;24.752;2023-01-28T03:51:59;99064.00;;;5.00;67.50
65175;BME280;51761;42.126;24.752;2023-01-28T03:54:24;99054.19;;;4.85;68.04
65175;BME280;51761;42.126;24.752;2023-01-28T03:56:49;99060.50;;;4.82;67.82
65175;BME280;51761;42.126;24.752;2023-01-28T03:59:15;99039.97;;;4.66;68.11
65175;BME280;51761;42.126;24.752;2023-01-28T04:01:40;99072.75;;;4.85;67.77
65175;BME280;51761;42.126;24.752;2023-01-28T04:04:06;99037.22;;;4.69;67.79
65175;BME280;51761;42.126;24.752;2023-01-28T04:06:32;99066.03;;;4.82;67.86
65175;BME280;51761;42.126;24.752;2023-01-28T04:08:57;99062.84;;;4.80;68.06
65175;BME280;51761;42.126;24.752;2023-01-28T04:11:26;99058.13;;;4.77;67.98
65175;BME280;51761;42.126;24.752;2023-01-28T04:13:51;99072.34;;;4.83;67.81
65175;BME280;51761;42.126;24.752;2023-01-28T04:16:18;99037.59;;;4.75;68.03
65175;BME280;51761;42.126;24.752;2023-01-28T04:18:44;99042.75;;;4.69;68.06
65175;BME280;51761;42.126;24.752;2023-01-28T04:21:10;99064.88;;;4.73;68.63
65175;BME280;51761;42.126;24.752;2023-01-28T04:23:36;99059.34;;;4.69;68.52
65175;BME280;51761;42.126;24.752;2023-01-28T04:26:02;99065.25;;;4.71;68.59
65175;BME280;51761;42.126;24.752;2023-01-28T04:28:28;99047.88;;;4.54;68.85
65175;BME280;51761;42.126;24.752;2023-01-28T04:30:54;99054.59;;;4.66;68.23
65175;BME280;51761;42.126;24.752;2023-01-28T04:33:19;99070.38;;;4.76;68.02
65175;BME280;51761;42.126;24.752;2023-01-28T04:35:45;99075.13;;;4.72;68.28
65175;BME280;51761;42.126;24.752;2023-01-28T04:38:10;99055.81;;;4.59;68.38
65175;BME280;51761;42.126;24.752;2023-01-28T04:40:36;99051.03;;;4.59;68.21
65175;BME280;51761;42.126;24.752;2023-01-28T04:43:01;99073.16;;;4.73;67.96
65175;BME280;51761;42.126;24.752;2023-01-28T04:45:27;99048.31;;;4.42;68.19
65175;BME280;51761;42.126;24.752;2023-01-28T04:47:52;99082.25;;;4.66;68.37
65175;BME280;51761;42.126;24.752;2023-01-28T04:50:18;99087.78;;;4.63;68.73
65175;BME280;51761;42.126;24.752;2023-01-28T04:52:43;99088.59;;;4.57;68.70
65175;BME280;51761;42.126;24.752;2023-01-28T04:55:09;99073.19;;;4.45;68.79
65175;BME280;51761;42.126;24.752;2023-01-28T04:57:35;99102.41;;;4.53;69.02
65175;BME280;51761;42.126;24.752;2023-01-28T05:00:00;99077.13;;;4.34;68.98
65175;BME280;51761;42.126;24.752;2023-01-28T05:02:26;99107.94;;;4.53;69.15
65175;BME280;51761;42.126;24.752;2023-01-28T05:04:52;99103.59;;;4.45;68.99
65175;BME280;51761;42.126;24.752;2023-01-28T05:07:17;99111.47;;;4.54;68.92
65175;BME280;51761;42.126;24.752;2023-01-28T05:09:43;99117.44;;;4.63;68.87
65175;BME280;51761;42.126;24.752;2023-01-28T05:12:08;99114.28;;;4.61;68.84
65175;BME280;51761;42.126;24.752;2023-01-28T05:14:33;99102.00;;;4.51;68.48
65175;BME280;51761;42.126;24.752;2023-01-28T05:16:59;99112.66;;;4.63;68.34
65175;BME280;51761;42.126;24.752;2023-01-28T05:19:24;99107.94;;;4.57;68.37
65175;BME280;51761;42.126;24.752;2023-01-28T05:21:50;99126.50;;;4.66;68.37
65175;BME280;51761;42.126;24.752;2023-01-28T05:24:15;99120.97;;;4.66;68.36
65175;BME280;51761;42.126;24.752;2023-01-28T05:26:41;99128.88;;;4.75;68.19
65175;BME280;51761;42.126;24.752;2023-01-28T05:29:06;99130.06;;;4.84;67.70
65175;BME280;51761;42.126;24.752;2023-01-28T05:31:32;99136.38;;;4.85;67.67
65175;BME280;51761;42.126;24.752;2023-01-28T05:33:58;99132.41;;;4.86;67.51
65175;BME280;51761;42.126;24.752;2023-01-28T05:36:24;99136.75;;;4.94;67.63
65175;BME280;51761;42.126;24.752;2023-01-28T05:38:49;99135.97;;;4.86;67.55
65175;BME280;51761;42.126;24.752;2023-01-28T05:41:15;99141.88;;;4.81;67.78
65175;BME280;51761;42.126;24.752;2023-01-28T05:43:40;99132.03;;;4.73;68.00
65175;BME280;51761;42.126;24.752;2023-01-28T05:46:05;99138.75;;;4.86;67.63
65175;BME280;51761;42.126;24.752;2023-01-28T05:48:31;99126.91;;;4.68;67.89
65175;BME280;51761;42.126;24.752;2023-01-28T05:50:56;99149.00;;;4.86;67.50
65175;BME280;51761;42.126;24.752;2023-01-28T05:53:22;99150.59;;;4.90;67.27
65175;BME280;51761;42.126;24.752;2023-01-28T05:55:49;99159.69;;;4.87;67.35
65175;BME280;51761;42.126;24.752;2023-01-28T05:58:15;99156.16;;;4.83;67.22
65175;BME280;51761;42.126;24.752;2023-01-28T06:00:41;99154.16;;;4.87;67.40
65175;BME280;51761;42.126;24.752;2023-01-28T06:03:06;99160.47;;;4.98;66.96
65175;BME280;51761;42.126;24.752;2023-01-28T06:05:32;99184.19;;;4.99;67.12
65175;BME280;51761;42.126;24.752;2023-01-28T06:07:57;99184.16;;;4.96;67.15
65175;BME280;51761;42.126;24.752;2023-01-28T06:10:22;99180.63;;;4.95;67.42
65175;BME280;51761;42.126;24.752;2023-01-28T06:12:49;99186.16;;;5.02;67.45
65175;BME280;51761;42.126;24.752;2023-01-28T06:15:15;99192.09;;;4.97;67.51
65175;BME280;51761;42.126;24.752;2023-01-28T06:17:40;99173.91;;;4.79;67.74
65175;BME280;51761;42.126;24.752;2023-01-28T06:20:06;99173.53;;;4.87;67.58
65175;BME280;51761;42.126;24.752;2023-01-28T06:22:33;99195.63;;;5.08;66.96
65175;BME280;51761;42.126;24.752;2023-01-28T06:24:58;99184.56;;;4.91;67.47
65175;BME280;51761;42.126;24.752;2023-01-28T06:27:24;99188.13;;;4.95;67.51
65175;BME280;51761;42.126;24.752;2023-01-28T06:29:50;99209.47;;;5.08;67.36
65175;BME280;51761;42.126;24.752;2023-01-28T06:32:15;99217.00;;;5.18;66.90
65175;BME280;51761;42.126;24.752;2023-01-28T06:34:41;99210.66;;;5.18;67.14
65175;BME280;51761;42.126;24.752;2023-01-28T06:37:06;99217.78;;;5.22;67.27
65175;BME280;51761;42.126;24.752;2023-01-28T06:39:32;99212.66;;;5.17;67.22
65175;BME280;51761;42.126;24.752;2023-01-28T06:41:57;99220.94;;;5.21;67.50
65175;BME280;51761;42.126;24.752;2023-01-28T06:44:23;99235.59;;;5.25;67.24
65175;BME280;51761;42.126;24.752;2023-01-28T06:46:48;99227.66;;;5.27;67.15
65175;BME280;51761;42.126;24.752;2023-01-28T06:49:14;99210.66;;;5.21;67.23
65175;BME280;51761;42.126;24.752;2023-01-28T06:51:39;99215.00;;;5.29;67.31
65175;BME280;51761;42.126;24.752;2023-01-28T06:54:05;99223.31;;;5.29;66.96
65175;BME280;51761;42.126;24.752;2023-01-28T06:58:56;99235.56;;;5.39;68.28
65175;BME280;51761;42.126;24.752;2023-01-28T07:01:22;99245.03;;;5.48;68.15
65175;BME280;51761;42.126;24.752;2023-01-28T07:03:47;99238.69;;;5.51;70.41
65175;BME280;51761;42.126;24.752;2023-01-28T07:06:13;99251.34;;;5.59;66.63
65175;BME280;51761;42.126;24.752;2023-01-28T07:08:38;99260.81;;;5.65;66.47
65175;BME280;51761;42.126;24.752;2023-01-28T07:11:05;99263.97;;;5.74;66.45
65175;BME280;51761;42.126;24.752;2023-01-28T07:13:31;99258.47;;;5.67;66.52
65175;BME280;51761;42.126;24.752;2023-01-28T07:15:57;99245.00;;;5.62;66.18
65175;BME280;51761;42.126;24.752;2023-01-28T07:18:22;99263.97;;;5.74;66.61
65175;BME280;51761;42.126;24.752;2023-01-28T07:20:48;99265.56;;;5.79;66.36
65175;BME280;51761;42.126;24.752;2023-01-28T07:23:13;99268.34;;;5.82;66.19
65175;BME280;51761;42.126;24.752;2023-01-28T07:25:39;99251.28;;;5.77;65.52
65175;BME280;51761;42.126;24.752;2023-01-28T07:28:05;99251.31;;;5.80;66.31
65175;BME280;51761;42.126;24.752;2023-01-28T07:30:30;99258.81;;;5.97;65.10
65175;BME280;51761;42.126;24.752;2023-01-28T07:32:57;99269.47;;;5.99;65.51
65175;BME280;51761;42.126;24.752;2023-01-28T07:35:23;99286.06;;;6.09;64.56
65175;BME280;51761;42.126;24.752;2023-01-28T07:37:56;99284.50;;;6.12;64.50
65175;BME280;51761;42.126;24.752;2023-01-28T07:40:23;99264.31;;;6.01;64.10
65175;BME280;51761;42.126;24.752;2023-01-28T07:42:49;99289.66;;;6.03;63.98
65175;BME280;51761;42.126;24.752;2023-01-28T07:45:15;99269.50;;;5.92;64.37
65175;BME280;51761;42.126;24.752;2023-01-28T07:47:40;99289.25;;;6.04;64.43
65175;BME280;51761;42.126;24.752;2023-01-28T07:50:07;99296.31;;;6.26;64.25
65175;BME280;51761;42.126;24.752;2023-01-28T07:52:33;99298.69;;;6.27;62.92
65175;BME280;51761;42.126;24.752;2023-01-28T07:55:09;99293.53;;;6.29;62.86
65175;BME280;51761;42.126;24.752;2023-01-28T07:57:34;99298.50;;;6.69;62.42
65175;BME280;51761;42.126;24.752;2023-01-28T08:00:00;99272.00;;;7.16;60.83
65175;BME280;51761;42.126;24.752;2023-01-28T08:02:26;99288.28;;;8.01;58.25
65175;BME280;51761;42.126;24.752;2023-01-28T08:04:53;99311.38;;;8.65;56.08
65175;BME280;51761;42.126;24.752;2023-01-28T08:07:18;99282.88;;;9.11;54.65
65175;BME280;51761;42.126;24.752;2023-01-28T08:09:44;99294.19;;;9.72;53.00
65175;BME280;51761;42.126;24.752;2023-01-28T08:12:09;99307.06;;;10.32;50.93
65175;BME280;51761;42.126;24.752;2023-01-28T08:14:35;99320.00;;;10.81;49.97
65175;BME280;51761;42.126;24.752;2023-01-28T08:17:01;99309.56;;;11.00;48.40
65175;BME280;51761;42.126;24.752;2023-01-28T08:19:26;99313.88;;;11.05;48.72
65175;BME280;51761;42.126;24.752;2023-01-28T08:21:51;99311.81;;;11.25;51.37
65175;BME280;51761;42.126;24.752;2023-01-28T08:24:17;99319.19;;;11.51;48.83
65175;BME280;51761;42.126;24.752;2023-01-28T08:26:43;99321.72;;;11.77;49.67
65175;BME280;51761;42.126;24.752;2023-01-28T08:29:09;99310.53;;;11.93;51.97
65175;BME280;51761;42.126;24.752;2023-01-28T08:31:34;99344.69;;;12.45;46.98
65175;BME280;51761;42.126;24.752;2023-01-28T08:33:59;99337.31;;;12.79;62.23
65175;BME280;51761;42.126;24.752;2023-01-28T08:36:25;99336.38;;;12.70;46.12
65175;BME280;51761;42.126;24.752;2023-01-28T08:38:51;99347.97;;;13.13;52.76
65175;BME280;51761;42.126;24.752;2023-01-28T08:41:20;99331.22;;;13.09;43.59
65175;BME280;51761;42.126;24.752;2023-01-28T08:43:46;99354.63;;;12.90;43.89
65175;BME280;51761;42.126;24.752;2023-01-28T08:46:12;99357.94;;;12.85;44.23
65175;BME280;51761;42.126;24.752;2023-01-28T08:48:37;99347.34;;;12.93;42.46
65175;BME280;51761;42.126;24.752;2023-01-28T08:51:03;99365.72;;;12.37;44.10
65175;BME280;51761;42.126;24.752;2023-01-28T08:53:28;99354.63;;;12.62;42.96
65175;BME280;51761;42.126;24.752;2023-01-28T08:55:54;99362.75;;;12.72;44.90
65175;BME280;51761;42.126;24.752;2023-01-28T08:58:19;99369.41;;;12.91;43.09
65175;BME280;51761;42.126;24.752;2023-01-28T09:00:46;99348.97;;;12.78;42.67
65175;BME280;51761;42.126;24.752;2023-01-28T09:03:11;99362.44;;;12.83;43.61
65175;BME280;51761;42.126;24.752;2023-01-28T09:05:37;99370.72;;;12.86;43.47
65175;BME280;51761;42.126;24.752;2023-01-28T09:08:13;99367.75;;;12.37;44.13
65175;BME280;51761;42.126;24.752;2023-01-28T09:10:39;99346.53;;;12.52;44.80
65175;BME280;51761;42.126;24.752;2023-01-28T09:13:07;99370.50;;;13.22;43.77
65175;BME280;51761;42.126;24.752;2023-01-28T09:15:34;99368.69;;;12.46;44.45
65175;BME280;51761;42.126;24.752;2023-01-28T09:17:59;99370.66;;;11.18;44.93
65175;BME280;51761;42.126;24.752;2023-01-28T09:20:26;99365.78;;;10.67;46.32
65175;BME280;51761;42.126;24.752;2023-01-28T09:22:52;99345.78;;;10.30;47.72
65175;BME280;51761;42.126;24.752;2023-01-28T09:25:18;99353.44;;;10.45;48.93
65175;BME280;51761;42.126;24.752;2023-01-28T09:27:43;99358.38;;;10.77;47.62
65175;BME280;51761;42.126;24.752;2023-01-28T09:30:09;99359.34;;;11.05;46.97
65175;BME280;51761;42.126;24.752;2023-01-28T09:32:35;99357.63;;;11.11;47.13
65175;BME280;51761;42.126;24.752;2023-01-28T09:35:01;99366.50;;;11.42;46.50
65175;BME280;51761;42.126;24.752;2023-01-28T09:37:27;99338.94;;;11.60;44.80
65175;BME280;51761;42.126;24.752;2023-01-28T09:39:53;99360.53;;;12.07;45.88
65175;BME280;51761;42.126;24.752;2023-01-28T09:47:59;99369.81;;;11.88;45.50
65175;BME280;51761;42.126;24.752;2023-01-28T09:50:37;99363.69;;;11.77;44.86
65175;BME280;51761;42.126;24.752;2023-01-28T09:53:10;99344.91;;;11.26;47.00
65175;BME280;51761;42.126;24.752;2023-01-28T09:55:49;99360.31;;;10.99;45.60
65175;BME280;51761;42.126;24.752;2023-01-28T09:58:16;99365.09;;;10.98;46.57
65175;BME280;51761;42.126;24.752;2023-01-28T10:03:53;99372.50;;;11.24;46.53
65175;BME280;51761;42.126;24.752;2023-01-28T10:11:53;99371.31;;;9.82;48.43
65175;BME280;51761;42.126;24.752;2023-01-28T10:17:31;99356.91;;;10.10;49.42
65175;BME280;51761;42.126;24.752;2023-01-28T10:20:05;99367.69;;;9.85;50.13
65175;BME280;51761;42.126;24.752;2023-01-28T10:22:43;99365.84;;;9.52;50.05
65175;BME280;51761;42.126;24.752;2023-01-28T10:25:18;99370.34;;;9.43;50.79
65175;BME280;51761;42.126;24.752;2023-01-28T10:27:46;99357.19;;;9.70;51.39
65175;BME280;51761;42.126;24.752;2023-01-28T10:35:15;99367.66;;;9.62;50.99
65175;BME280;51761;42.126;24.752;2023-01-28T10:37:41;99354.94;;;9.35;51.04
65175;BME280;51761;42.126;24.752;2023-01-28T10:40:16;99370.72;;;9.45;50.63
65175;BME280;51761;42.126;24.752;2023-01-28T10:42:42;99368.97;;;9.28;51.48
65175;BME280;51761;42.126;24.752;2023-01-28T10:45:31;99367.47;;;9.24;51.49
65175;BME280;51761;42.126;24.752;2023-01-28T10:48:04;99369.63;;;9.39;52.62
65175;BME280;51761;42.126;24.752;2023-01-28T10:50:31;99363.94;;;9.46;51.56
65175;BME280;51761;42.126;24.752;2023-01-28T10:53:01;99368.66;;;9.49;51.58
65175;BME280;51761;42.126;24.752;2023-01-28T10:58:20;99341.59;;;9.23;51.45
65175;BME280;51761;42.126;24.752;2023-01-28T11:00:52;99362.13;;;9.59;51.52
65175;BME280;51761;42.126;24.752;2023-01-28T11:03:18;99365.75;;;9.56;51.55
65175;BME280;51761;42.126;24.752;2023-01-28T11:05:50;99365.41;;;9.54;51.55
65175;BME280;51761;42.126;24.752;2023-01-28T11:08:18;99360.56;;;9.32;52.37
65175;BME280;51761;42.126;24.752;2023-01-28T11:10:45;99368.25;;;9.24;52.65
65175;BME280;51761;42.126;24.752;2023-01-28T11:15:49;99342.94;;;9.12;53.26
65175;BME280;51761;42.126;24.752;2023-01-28T11:18:27;99369.44;;;9.49;52.52
65175;BME280;51761;42.126;24.752;2023-01-28T11:21:01;99346.34;;;9.49;51.80
65175;BME280;51761;42.126;24.752;2023-01-28T11:23:28;99364.63;;;9.99;51.89
65175;BME280;51761;42.126;24.752;2023-01-28T11:26:01;99343.13;;;10.23;50.55
65175;BME280;51761;42.126;24.752;2023-01-28T11:28:29;99360.97;;;10.68;49.18
65175;BME280;51761;42.126;24.752;2023-01-28T11:30:57;99357.28;;;11.09;49.24
65175;BME280;51761;42.126;24.752;2023-01-28T11:35:56;99344.13;;;11.93;46.02
65175;BME280;51761;42.126;24.752;2023-01-28T11:38:24;99365.44;;;11.71;47.29
65175;BME280;51761;42.126;24.752;2023-01-28T11:40:51;99355.25;;;11.45;47.31
65175;BME280;51761;42.126;24.752;2023-01-28T11:43:22;99360.63;;;11.56;47.59
65175;BME280;51761;42.126;24.752;2023-01-28T11:51:00;99349.84;;;11.38;46.53
65175;BME280;51761;42.126;24.752;2023-01-28T12:02:38;99362.75;;;10.97;49.03
65175;BME280;51761;42.126;24.752;2023-01-28T12:05:37;99364.81;;;10.74;50.59
65175;BME280;51761;42.126;24.752;2023-01-28T12:19:06;99380.78;;;9.62;54.00
65175;BME280;51761;42.126;24.752;2023-01-28T12:30:39;99391.28;;;8.98;54.51
65175;BME280;51761;42.126;24.752;2023-01-28T12:41:13;99366.34;;;8.21;56.98
65175;BME280;51761;42.126;24.752;2023-01-28T12:43:46;99376.81;;;8.06;57.78
65175;BME280;51761;42.126;24.752;2023-01-28T12:51:46;99407.09;;;7.94;59.10
65175;BME280;51761;42.126;24.752;2023-01-28T12:54:28;99409.53;;;7.88;59.97
65175;BME280;51761;42.126;24.752;2023-01-28T12:56:55;99404.31;;;7.97;60.50
65175;BME280;51761;42.126;24.752;2023-01-28T13:00:05;99407.09;;;7.94;60.16
65175;BME280;51761;42.126;24.752;2023-01-28T13:02:41;99395.75;;;7.75;59.77
65175;BME280;51761;42.126;24.752;2023-01-28T13:05:19;99391.88;;;7.62;60.47
65175;BME280;51761;42.126;24.752;2023-01-28T13:12:43;99413.47;;;7.94;60.51
65175;BME280;51761;42.126;24.752;2023-01-28T13:15:14;99424.16;;;7.99;62.23
65175;BME280;51761;42.126;24.752;2023-01-28T13:17:55;99415.28;;;7.64;60.53
65175;BME280;51761;42.126;24.752;2023-01-28T13:20:48;99427.19;;;7.68;60.81
65175;BME280;51761;42.126;24.752;2023-01-28T13:25:53;99437.72;;;7.40;62.04
65175;BME280;51761;42.126;24.752;2023-01-28T13:28:31;99438.59;;;7.19;62.83
65175;BME280;51761;42.126;24.752;2023-01-28T13:33:33;99443.69;;;7.31;62.76
65175;BME280;51761;42.126;24.752;2023-01-28T13:36:04;99436.19;;;7.25;62.81
65175;BME280;51761;42.126;24.752;2023-01-28T13:38:34;99421.19;;;7.12;64.15
65175;BME280;51761;42.126;24.752;2023-01-28T13:41:00;99446.84;;;7.33;63.60
65175;BME280;51761;42.126;24.752;2023-01-28T13:46:04;99456.53;;;7.01;64.59
65175;BME280;51761;42.126;24.752;2023-01-28T13:48:48;99456.19;;;6.95;65.23
65175;BME280;51761;42.126;24.752;2023-01-28T13:51:36;99462.53;;;6.89;65.73
65175;BME280;51761;42.126;24.752;2023-01-28T13:54:11;99469.75;;;6.62;67.02
65175;BME280;51761;42.126;24.752;2023-01-28T13:59:38;99465.47;;;6.26;69.00
65175;BME280;51761;42.126;24.752;2023-01-28T14:07:48;99478.94;;;5.82;71.44
65175;BME280;51761;42.126;24.752;2023-01-28T14:10:31;99476.13;;;5.75;72.69
65175;BME280;51761;42.126;24.752;2023-01-28T14:13:23;99467.06;;;5.82;72.31
65175;BME280;51761;42.126;24.752;2023-01-28T14:18:31;99448.41;;;5.47;72.97
65175;BME280;51761;42.126;24.752;2023-01-28T14:21:02;99488.38;;;5.60;73.71
65175;BME280;51761;42.126;24.752;2023-01-28T14:23:34;99476.09;;;5.54;73.62
65175;BME280;51761;42.126;24.752;2023-01-28T14:31:25;99480.06;;;5.64;73.50
65175;BME280;51761;42.126;24.752;2023-01-28T14:33:52;99468.19;;;5.63;73.62
65175;BME280;51761;42.126;24.752;2023-01-28T14:36:18;99486.00;;;5.62;74.17
65175;BME280;51761;42.126;24.752;2023-01-28T14:38:45;99494.72;;;5.68;74.38
65175;BME280;51761;42.126;24.752;2023-01-28T14:41:25;99470.13;;;5.49;74.20
65175;BME280;51761;42.126;24.752;2023-01-28T14:43:53;99475.28;;;5.40;74.29
65175;BME280;51761;42.126;24.752;2023-01-28T14:46:30;99505.34;;;5.52;75.04
65175;BME280;51761;42.126;24.752;2023-01-28T14:49:20;99507.75;;;5.53;74.69
65175;BME280;51761;42.126;24.752;2023-01-28T15:00:03;99516.47;;;5.62;74.24
65175;BME280;51761;42.126;24.752;2023-01-28T15:02:42;99513.69;;;5.62;73.76
65175;BME280;51761;42.126;24.752;2023-01-28T15:05:14;99506.19;;;5.56;73.89
65175;BME280;51761;42.126;24.752;2023-01-28T15:07:45;99521.63;;;5.71;73.55
65175;BME280;51761;42.126;24.752;2023-01-28T15:10:22;99513.31;;;5.71;72.92
65175;BME280;51761;42.126;24.752;2023-01-28T15:13:07;99511.72;;;5.66;73.09
65175;BME280;51761;42.126;24.752;2023-01-28T15:15:36;99499.84;;;5.59;72.77
65175;BME280;51761;42.126;24.752;2023-01-28T15:18:09;99526.38;;;5.74;72.09
65175;BME280;51761;42.126;24.752;2023-01-28T15:20:36;99504.59;;;5.65;71.82
65175;BME280;51761;42.126;24.752;2023-01-28T15:23:05;99531.53;;;5.68;71.90
65175;BME280;51761;42.126;24.752;2023-01-28T15:25:31;99539.06;;;5.71;71.93
65175;BME280;51761;42.126;24.752;2023-01-28T15:27:58;99535.50;;;5.74;72.05
65175;BME280;51761;42.126;24.752;2023-01-28T15:30:28;99541.84;;;5.71;71.70
65175;BME280;51761;42.126;24.752;2023-01-28T15:33:21;99545.84;;;5.88;71.38
65175;BME280;51761;42.126;24.752;2023-01-28T15:35:48;99542.66;;;5.89;71.01